Time;durP1;ratioP1;P1;durP2;ratioP2;P2;SDS_P1;SDS_P2;PMS_P1;PMS_P2;Temp;Humidity;BMP_temperature;BMP_pressure;BME280_temperature;BME280_humidity;BME280_pressure;Samples;Min_cycle;Max_cycle;Signal;HPM_P1;HPM_P2
2022/04/03 00:01:26;;;;;;;8.70;4.10;;;2.70;99.90;;;;;;5055630;28;20024;-82
2022/04/03 00:03:52;;;;;;;7.73;4.13;;;2.60;99.90;;;;;;5056033;28;20024;-82
2022/04/03 00:06:18;;;;;;;8.07;4.50;;;2.60;99.90;;;;;;5059451;28;20020;-82
2022/04/03 00:08:44;;;;;;;9.17;4.10;;;2.60;99.90;;;;;;5058994;28;20020;-82
2022/04/03 00:11:10;;;;;;;8.43;4.43;;;2.50;99.90;;;;;;5077063;28;20025;-81
2022/04/03 00:13:39;;;;;;;6.27;4.00;;;2.50;99.90;;;;;;5058984;28;20511;-82
2022/04/03 00:16:06;;;;;;;8.63;4.30;;;2.50;99.90;;;;;;5077058;28;20028;-82
2022/04/03 00:18:33;;;;;;;7.73;3.90;;;2.50;99.90;;;;;;5059372;28;20029;-82
2022/04/03 00:20:59;;;;;;;7.13;3.90;;;2.50;99.90;;;;;;5076607;28;20072;-82
2022/04/03 00:23:25;;;;;;;7.53;4.50;;;2.40;99.90;;;;;;5076665;28;20032;-82
2022/04/03 00:25:51;;;;;;;7.27;4.17;;;2.50;99.90;;;;;;5058475;28;20066;-82
2022/04/03 00:28:18;;;;;;;5.80;4.00;;;2.40;99.90;;;;;;5058903;28;20024;-80
2022/04/03 00:30:43;;;;;;;8.00;4.37;;;2.40;99.90;;;;;;5074913;28;20028;-80
2022/04/03 00:33:10;;;;;;;8.67;4.73;;;2.40;99.90;;;;;;5075179;28;20401;-80
2022/04/03 00:35:36;;;;;;;8.83;4.07;;;2.40;99.90;;;;;;5075487;28;20033;-80
2022/04/03 00:38:02;;;;;;;8.70;4.40;;;2.30;99.90;;;;;;5058639;28;20016;-80
2022/04/03 00:40:28;;;;;;;7.83;4.40;;;2.30;99.90;;;;;;5076313;28;20028;-80
2022/04/03 00:42:54;;;;;;;8.00;4.20;;;2.30;99.90;;;;;;5074828;28;20473;-80
2022/04/03 00:45:19;;;;;;;7.70;4.20;;;2.30;99.90;;;;;;5058331;28;20111;-80
2022/04/03 00:47:48;;;;;;;7.53;4.10;;;2.30;99.90;;;;;;5057915;28;20032;-80
2022/04/03 00:50:15;;;;;;;9.43;4.27;;;2.30;99.90;;;;;;5075054;28;20028;-80
2022/04/03 00:52:41;;;;;;;6.47;3.90;;;2.40;99.90;;;;;;5075445;28;20039;-80
2022/04/03 00:55:07;;;;;;;10.90;4.93;;;2.30;99.90;;;;;;5074980;28;20025;-81
2022/04/03 00:57:34;;;;;;;13.13;5.90;;;2.30;99.90;;;;;;5058197;28;20027;-80
2022/04/03 01:00:01;;;;;;;17.77;7.50;;;2.30;99.90;;;;;;5057945;28;20449;-80
2022/04/03 01:02:27;;;;;;;26.50;10.87;;;2.30;99.90;;;;;;5074787;28;20031;-80
2022/04/03 01:04:52;;;;;;;27.63;11.40;;;2.30;99.90;;;;;;5057788;28;20119;-81
2022/04/03 01:07:18;;;;;;;18.27;8.53;;;2.20;99.90;;;;;;5076014;28;20056;-80
2022/04/03 01:09:44;;;;;;;14.03;6.83;;;2.20;99.90;;;;;;5057208;28;20077;-81
2022/04/03 01:12:10;;;;;;;14.47;6.43;;;2.10;99.90;;;;;;5057946;28;20076;-81
2022/04/03 01:14:38;;;;;;;11.60;6.03;;;2.10;99.90;;;;;;5075245;28;20055;-82
2022/04/03 01:17:05;;;;;;;9.23;5.13;;;2.20;99.90;;;;;;5057015;28;20031;-79
2022/04/03 01:19:31;;;;;;;11.03;4.90;;;2.20;99.90;;;;;;5057658;28;20119;-79
2022/04/03 01:21:57;;;;;;;8.47;4.50;;;2.20;99.90;;;;;;5074975;28;20053;-79
2022/04/03 01:24:25;;;;;;;8.43;4.87;;;2.20;99.90;;;;;;5057619;28;20024;-79
2022/04/03 01:26:52;;;;;;;11.03;4.73;;;2.10;99.90;;;;;;5074693;28;20453;-78
2022/04/03 01:29:18;;;;;;;5.70;3.87;;;2.20;99.90;;;;;;5074297;28;20047;-78
2022/04/03 01:31:46;;;;;;;9.33;4.70;;;2.10;99.90;;;;;;5056907;28;20109;-78
2022/04/03 01:34:12;;;;;;;7.17;4.70;;;2.20;99.90;;;;;;5075153;28;20016;-80
2022/04/03 01:36:38;;;;;;;7.27;4.57;;;2.20;99.90;;;;;;5074664;28;20031;-79
2022/04/03 01:39:04;;;;;;;7.17;4.30;;;2.20;99.90;;;;;;5057222;28;20020;-79
2022/04/03 01:41:29;;;;;;;7.43;3.93;;;2.30;99.90;;;;;;5057349;28;20062;-78
2022/04/03 01:43:55;;;;;;;10.00;4.83;;;2.30;99.90;;;;;;5056714;28;20025;-79
2022/04/03 01:46:21;;;;;;;10.83;4.87;;;2.30;99.90;;;;;;5074793;28;20020;-78
2022/04/03 01:48:46;;;;;;;8.10;4.37;;;2.30;99.90;;;;;;5056397;28;20052;-81
2022/04/03 01:51:12;;;;;;;8.40;4.60;;;2.30;99.90;;;;;;5057403;28;20024;-81
2022/04/03 01:53:38;;;;;;;7.60;4.37;;;2.30;99.90;;;;;;5073928;28;20041;-81
2022/04/03 01:56:07;;;;;;;7.93;4.67;;;2.30;99.90;;;;;;5057380;28;20115;-82
2022/04/03 01:58:34;;;;;;;8.17;4.60;;;2.30;99.90;;;;;;5057401;28;20024;-81
2022/04/03 02:01:01;;;;;;;8.17;4.90;;;2.40;99.90;;;;;;5056647;28;20048;-82
2022/04/03 02:03:27;;;;;;;10.63;4.47;;;2.40;99.90;;;;;;5056949;28;20028;-81
2022/04/03 02:05:53;;;;;;;10.60;4.97;;;2.40;99.90;;;;;;5056555;28;20027;-82
2022/04/03 02:08:19;;;;;;;10.67;5.43;;;2.40;99.90;;;;;;5074539;28;20118;-82
2022/04/03 02:10:45;;;;;;;9.53;4.63;;;2.40;99.90;;;;;;5056472;28;20461;-81
2022/04/03 02:13:11;;;;;;;8.67;5.60;;;2.40;99.90;;;;;;5073588;28;20063;-81
2022/04/03 02:15:37;;;;;;;10.13;4.97;;;2.40;99.90;;;;;;5057153;28;20066;-81
2022/04/03 02:18:03;;;;;;;10.23;5.70;;;2.30;99.90;;;;;;5073277;28;20020;-81
2022/04/03 02:20:28;;;;;;;10.17;5.53;;;2.30;99.90;;;;;;5056790;28;20048;-81
2022/04/03 02:22:54;;;;;;;8.77;5.33;;;2.30;99.90;;;;;;5056252;28;20523;-81
2022/04/03 02:25:20;;;;;;;9.03;5.00;;;2.30;99.90;;;;;;5074463;28;20067;-80
2022/04/03 02:27:47;;;;;;;8.90;5.00;;;2.30;99.90;;;;;;5072049;28;20021;-81
2022/04/03 02:30:13;;;;;;;11.00;5.13;;;2.30;99.90;;;;;;5073301;28;20031;-81
2022/04/03 02:32:40;;;;;;;8.80;5.40;;;2.20;99.90;;;;;;5056558;28;20028;-82
2022/04/03 02:35:08;;;;;;;9.37;5.13;;;2.20;99.90;;;;;;5056665;28;20017;-82
2022/04/03 02:37:34;;;;;;;10.27;5.20;;;2.20;99.90;;;;;;5056727;28;20111;-82
2022/04/03 02:40:01;;;;;;;11.33;5.23;;;2.10;99.90;;;;;;5073828;28;20257;-81
2022/04/03 02:42:26;;;;;;;10.53;5.20;;;2.20;99.90;;;;;;5074280;28;20028;-81
2022/04/03 02:44:52;;;;;;;8.40;4.73;;;2.20;99.90;;;;;;5072482;28;20028;-80
2022/04/03 02:47:18;;;;;;;9.00;4.60;;;2.30;99.90;;;;;;5074173;28;20027;-80
2022/04/03 02:49:44;;;;;;;9.23;5.40;;;2.30;99.90;;;;;;5073652;28;20063;-81
2022/04/03 02:52:11;;;;;;;10.53;5.20;;;2.30;99.90;;;;;;5056094;28;20056;-80
2022/04/03 02:54:37;;;;;;;7.47;4.37;;;2.30;99.90;;;;;;5073855;28;20024;-80
2022/04/03 02:57:03;;;;;;;10.00;5.03;;;2.30;99.90;;;;;;5055909;28;20020;-81
2022/04/03 02:59:28;;;;;;;9.33;5.43;;;2.40;99.90;;;;;;5056134;28;20104;-82
2022/04/03 03:01:54;;;;;;;6.60;4.60;;;2.40;99.90;;;;;;5055829;28;20105;-82
2022/04/03 03:04:20;;;;;;;8.77;4.47;;;2.40;99.90;;;;;;5073042;28;20077;-82
2022/04/03 03:06:46;;;;;;;9.27;5.83;;;2.50;99.90;;;;;;5055663;28;20021;-82
2022/04/03 03:09:11;;;;;;;7.80;4.43;;;2.50;99.90;;;;;;5055842;28;20032;-82
2022/04/03 03:11:37;;;;;;;7.93;4.77;;;2.50;99.90;;;;;;5056060;28;20048;-82
2022/04/03 03:14:03;;;;;;;13.20;4.80;;;2.50;99.90;;;;;;5054992;28;20090;-82
2022/04/03 03:16:29;;;;;;;9.63;5.03;;;2.50;99.90;;;;;;5055704;28;20032;-81
2022/04/03 03:18:54;;;;;;;7.90;4.73;;;2.50;99.90;;;;;;5072357;28;20021;-83
2022/04/03 03:21:21;;;;;;;8.20;4.47;;;2.50;99.90;;;;;;5056180;28;20072;-82
2022/04/03 03:23:46;;;;;;;10.53;5.07;;;2.50;99.90;;;;;;5073704;28;20112;-82
2022/04/03 03:26:12;;;;;;;7.77;4.40;;;2.50;99.90;;;;;;5055962;28;20115;-81
2022/04/03 03:28:38;;;;;;;8.47;4.90;;;2.50;99.90;;;;;;5055993;28;20024;-81
2022/04/03 03:31:03;;;;;;;7.63;4.43;;;2.50;99.90;;;;;;5073111;28;20052;-83
2022/04/03 03:33:29;;;;;;;10.37;4.87;;;2.50;99.90;;;;;;5055834;28;20119;-83
2022/04/03 03:35:55;;;;;;;10.70;4.73;;;2.50;99.90;;;;;;5072151;28;20449;-83
2022/04/03 03:38:21;;;;;;;9.40;4.93;;;2.50;99.90;;;;;;5072422;28;20173;-83
2022/04/03 03:40:47;;;;;;;9.33;4.60;;;2.50;99.90;;;;;;5077413;28;20025;-83
2022/04/03 03:43:13;;;;;;;9.67;4.77;;;2.50;99.90;;;;;;5077728;28;20025;-83
2022/04/03 03:45:38;;;;;;;7.87;5.03;;;2.50;99.90;;;;;;5059934;28;20017;-83
2022/04/03 03:48:04;;;;;;;7.13;4.43;;;2.50;99.90;;;;;;5076319;28;20209;-83
2022/04/03 03:50:31;;;;;;;7.93;4.77;;;2.50;99.90;;;;;;5077479;28;20082;-83
2022/04/03 03:52:57;;;;;;;7.37;4.63;;;2.50;99.90;;;;;;5076855;28;20024;-83
2022/04/03 03:55:22;;;;;;;7.33;4.63;;;2.50;99.90;;;;;;5077468;28;20024;-83
2022/04/03 03:57:48;;;;;;;8.23;4.40;;;2.40;99.90;;;;;;5076843;28;20020;-83
2022/04/03 04:00:15;;;;;;;7.27;4.10;;;2.40;99.90;;;;;;5077203;28;20020;-81
2022/04/03 04:02:40;;;;;;;7.37;4.30;;;2.40;99.90;;;;;;5058830;28;20119;-81
2022/04/03 04:05:07;;;;;;;7.97;4.40;;;2.50;99.90;;;;;;5076768;28;20075;-80
2022/04/03 04:07:44;;;;;;;6.97;4.20;;;2.40;99.90;;;;;;5059259;28;20149;-81
2022/04/03 04:10:14;;;;;;;9.57;4.60;;;2.40;99.90;;;;;;5076173;28;20465;-80
2022/04/03 04:12:44;;;;;;;10.83;5.03;;;2.50;99.90;;;;;;5076655;28;20033;-80
2022/04/03 04:15:12;;;;;;;10.70;4.90;;;2.40;99.90;;;;;;5058892;28;20024;-82
2022/04/03 04:17:43;;;;;;;10.83;5.30;;;2.50;99.90;;;;;;5059382;28;20052;-80
2022/04/03 04:20:12;;;;;;;8.50;4.73;;;2.50;99.90;;;;;;5057841;28;20477;-81
2022/04/03 04:22:39;;;;;;;7.87;4.20;;;2.50;99.90;;;;;;5058268;28;20024;-82
2022/04/03 04:25:05;;;;;;;8.33;4.63;;;2.50;99.90;;;;;;5075664;28;20018;-80
2022/04/03 04:27:31;;;;;;;8.17;4.87;;;2.50;99.90;;;;;;5058215;28;20285;-81
2022/04/03 04:29:57;;;;;;;8.50;4.80;;;2.50;99.90;;;;;;5058139;28;20094;-79
2022/04/03 04:32:23;;;;;;;10.23;4.87;;;2.40;99.90;;;;;;5075844;28;20100;-79
2022/04/03 04:34:50;;;;;;;5.93;3.83;;;2.40;99.90;;;;;;5057744;28;20013;-82
2022/04/03 04:37:16;;;;;;;7.03;4.37;;;2.40;99.90;;;;;;5058388;28;20512;-81
2022/04/03 04:39:42;;;;;;;9.17;4.67;;;2.40;99.90;;;;;;5058756;28;20024;-80
2022/04/03 04:42:08;;;;;;;8.20;4.70;;;2.50;99.90;;;;;;5075693;28;20204;-82
2022/04/03 04:44:33;;;;;;;7.07;4.33;;;2.50;99.90;;;;;;5076349;28;20536;-82
2022/04/03 04:46:59;;;;;;;8.00;4.40;;;2.50;99.90;;;;;;5057878;28;20025;-82
2022/04/03 04:49:25;;;;;;;7.93;4.17;;;2.50;99.90;;;;;;5059754;28;20024;-85
2022/04/03 04:51:50;;;;;;;9.50;4.80;;;2.50;99.90;;;;;;5074474;28;20266;-80
2022/04/03 04:54:16;;;;;;;9.50;4.20;;;2.50;99.90;;;;;;5061860;28;20027;-80
2022/04/03 04:56:42;;;;;;;12.13;4.70;;;2.50;99.90;;;;;;5083879;28;20031;-83
2022/04/03 04:59:08;;;;;;;7.70;4.23;;;2.50;99.90;;;;;;5062701;28;20023;-83
2022/04/03 05:01:33;;;;;;;8.07;4.37;;;2.60;99.90;;;;;;5083449;28;20029;-82
2022/04/03 05:03:59;;;;;;;6.77;4.07;;;2.60;99.90;;;;;;5065646;28;20342;-80
2022/04/03 05:06:26;;;;;;;6.97;4.37;;;2.60;99.90;;;;;;5074374;28;20020;-83
2022/04/03 05:08:53;;;;;;;8.60;4.80;;;2.60;99.90;;;;;;5056891;28;20105;-81
2022/04/03 05:11:20;;;;;;;10.80;5.20;;;2.60;99.90;;;;;;5082777;28;20031;-81
2022/04/03 05:13:46;;;;;;;8.27;4.47;;;2.50;99.90;;;;;;5095364;28;20028;-78
2022/04/03 05:16:12;;;;;;;8.33;4.63;;;2.50;99.90;;;;;;5061908;28;20070;-85
2022/04/03 05:18:38;;;;;;;11.47;4.70;;;2.50;99.90;;;;;;5075177;28;20019;-87
2022/04/03 05:21:04;;;;;;;7.20;4.13;;;2.50;99.90;;;;;;5084210;28;20043;-80
2022/04/03 05:23:31;;;;;;;9.00;4.80;;;2.60;99.90;;;;;;5068691;28;20029;-82
2022/04/03 05:25:57;;;;;;;8.60;4.70;;;2.50;99.90;;;;;;5069455;28;20020;-80
2022/04/03 05:28:22;;;;;;;7.47;4.50;;;2.60;99.90;;;;;;5060964;28;20365;-80
2022/04/03 05:30:48;;;;;;;6.97;3.83;;;2.60;99.90;;;;;;5073569;28;20107;-82
2022/04/03 05:33:15;;;;;;;7.90;4.80;;;2.60;99.90;;;;;;5081569;28;20099;-80
2022/04/03 05:35:41;;;;;;;8.97;4.13;;;2.60;99.90;;;;;;5066664;28;20013;-81
2022/04/03 05:38:06;;;;;;;8.70;4.67;;;2.70;99.90;;;;;;5070350;28;20024;-80
2022/04/03 05:40:32;;;;;;;7.37;4.47;;;2.80;99.90;;;;;;5060678;28;20468;-80
2022/04/03 05:42:58;;;;;;;9.13;4.50;;;2.70;99.90;;;;;;5072088;28;20028;-79
2022/04/03 05:45:24;;;;;;;10.23;5.30;;;2.70;99.90;;;;;;5065331;28;20433;-86
2022/04/03 05:47:50;;;;;;;8.57;4.47;;;2.80;99.90;;;;;;5074030;28;20025;-81
2022/04/03 05:50:16;;;;;;;8.60;4.90;;;2.70;99.90;;;;;;5088243;28;20028;-82
2022/04/03 05:52:43;;;;;;;7.37;4.50;;;2.80;99.90;;;;;;5092795;28;20036;-83
2022/04/03 05:55:09;;;;;;;9.60;4.63;;;2.70;99.90;;;;;;5062782;28;20230;-82
2022/04/03 05:57:36;;;;;;;8.27;4.77;;;2.70;99.90;;;;;;5085458;28;20020;-81
2022/04/03 06:00:02;;;;;;;7.80;4.50;;;2.70;99.90;;;;;;5069916;28;20077;-80
2022/04/03 06:02:27;;;;;;;9.40;4.70;;;2.70;99.90;;;;;;5059671;28;20028;-82
2022/04/03 06:04:53;;;;;;;8.83;4.90;;;2.80;99.90;;;;;;5072101;28;20021;-80
2022/04/03 06:07:19;;;;;;;9.53;5.20;;;2.80;99.90;;;;;;5081810;28;20020;-82
2022/04/03 06:09:44;;;;;;;7.80;4.50;;;2.90;99.90;;;;;;5083123;28;20029;-83
2022/04/03 06:12:10;;;;;;;8.63;4.47;;;3.00;99.90;;;;;;5068690;28;20174;-81
2022/04/03 06:14:36;;;;;;;7.47;4.33;;;3.00;99.90;;;;;;5090720;28;20025;-82
2022/04/03 06:17:01;;;;;;;10.37;4.43;;;3.00;99.90;;;;;;5074686;28;20081;-82
2022/04/03 06:19:27;;;;;;;9.57;4.70;;;3.00;99.90;;;;;;5076178;28;20024;-82
2022/04/03 06:21:53;;;;;;;11.07;4.80;;;3.10;99.90;;;;;;5074263;28;20044;-82
2022/04/03 06:24:18;;;;;;;8.83;4.30;;;3.00;99.90;;;;;;5071973;28;20048;-82
2022/04/03 06:26:44;;;;;;;8.33;4.23;;;3.10;99.90;;;;;;5077432;28;20372;-81
2022/04/03 06:29:09;;;;;;;8.60;4.53;;;3.10;99.90;;;;;;5069864;28;20021;-80
2022/04/03 06:31:35;;;;;;;10.40;4.53;;;3.10;99.90;;;;;;5055918;28;20090;-81
2022/04/03 06:34:02;;;;;;;6.93;4.13;;;3.10;99.90;;;;;;5068873;28;20043;-84
2022/04/03 06:36:27;;;;;;;7.70;4.17;;;3.10;99.90;;;;;;5059621;28;20027;-81
2022/04/03 06:38:53;;;;;;;7.87;4.37;;;3.10;99.90;;;;;;5093734;28;20100;-82
2022/04/03 06:41:19;;;;;;;6.57;4.17;;;3.10;99.90;;;;;;5087079;28;20067;-83
2022/04/03 06:43:45;;;;;;;7.13;4.43;;;3.20;99.90;;;;;;5056793;28;20050;-87
2022/04/03 06:46:10;;;;;;;6.40;3.90;;;3.20;99.90;;;;;;5055834;28;20365;-84
2022/04/03 06:48:36;;;;;;;6.60;4.00;;;3.20;99.90;;;;;;5056203;28;20028;-89
2022/04/03 06:51:02;;;;;;;8.07;4.30;;;3.30;99.90;;;;;;5073826;28;20150;-87
2022/04/03 06:53:27;;;;;;;8.07;4.67;;;3.30;99.90;;;;;;5056748;28;20461;-88
2022/04/03 06:55:53;;;;;;;10.13;4.60;;;3.30;99.90;;;;;;5073934;28;20500;-89
2022/04/03 06:58:19;;;;;;;7.73;4.33;;;3.40;99.90;;;;;;5074107;28;20024;-89
2022/04/03 07:00:44;;;;;;;8.50;4.10;;;3.40;99.90;;;;;;5056369;28;20365;-89
2022/04/03 07:03:10;;;;;;;9.10;4.10;;;3.30;99.90;;;;;;5055933;28;20051;-89
2022/04/03 07:05:35;;;;;;;9.57;4.17;;;3.20;99.90;;;;;;5056674;28;20062;-88
2022/04/03 07:08:01;;;;;;;7.10;3.70;;;3.20;99.90;;;;;;5055829;28;20024;-88
2022/04/03 07:10:27;;;;;;;6.63;3.53;;;3.30;99.90;;;;;;5056170;28;20107;-87
2022/04/03 07:12:55;;;;;;;8.13;3.77;;;3.30;99.90;;;;;;5055366;28;20032;-80
2022/04/03 07:15:20;;;;;;;7.40;3.70;;;3.30;99.90;;;;;;5055315;28;20074;-80
2022/04/03 07:17:47;;;;;;;9.97;3.83;;;3.30;99.90;;;;;;5056038;28;20369;-87
2022/04/03 07:20:13;;;;;;;12.93;3.87;;;3.40;99.90;;;;;;5055277;28;20044;-78
2022/04/03 07:22:41;;;;;;;6.43;3.80;;;3.30;99.90;;;;;;5047974;28;20043;-79
2022/04/03 07:25:07;;;;;;;8.83;4.03;;;3.30;99.90;;;;;;5043395;28;20067;-79
2022/04/03 07:27:33;;;;;;;7.63;4.07;;;3.30;99.90;;;;;;5072301;28;20016;-79
2022/04/03 07:29:59;;;;;;;5.67;3.70;;;3.30;99.90;;;;;;5054454;28;20028;-79
2022/04/03 07:32:24;;;;;;;10.10;4.20;;;3.30;99.90;;;;;;5069023;28;20446;-80
2022/04/03 07:34:50;;;;;;;6.63;3.50;;;3.40;99.90;;;;;;5051252;28;20021;-79
2022/04/03 07:37:16;;;;;;;6.40;3.73;;;3.40;99.90;;;;;;5057803;28;20028;-79
2022/04/03 07:39:41;;;;;;;4.30;2.73;;;3.40;99.90;;;;;;5072274;28;20032;-79
2022/04/03 07:42:07;;;;;;;6.70;3.40;;;3.50;99.90;;;;;;5063739;28;20059;-79
2022/04/03 07:44:33;;;;;;;7.47;3.10;;;3.50;99.90;;;;;;5078942;28;20377;-79
2022/04/03 07:46:58;;;;;;;6.33;3.37;;;3.60;99.90;;;;;;5084414;28;20114;-79
2022/04/03 07:49:24;;;;;;;7.07;3.87;;;3.60;99.90;;;;;;5055055;28;20052;-80
2022/04/03 07:51:50;;;;;;;9.17;3.17;;;3.60;99.90;;;;;;5081035;28;20359;-79
2022/04/03 07:54:15;;;;;;;6.37;3.33;;;3.60;99.90;;;;;;5062504;28;20027;-80
2022/04/03 07:56:41;;;;;;;9.47;3.63;;;3.60;99.90;;;;;;5064273;28;20039;-80
2022/04/03 07:59:07;;;;;;;7.93;4.23;;;3.60;99.90;;;;;;5055481;28;20530;-77
2022/04/03 08:01:36;;;;;;;7.07;3.67;;;3.60;99.90;;;;;;5087085;28;20017;-77
2022/04/03 08:04:02;;;;;;;6.40;3.53;;;3.70;99.90;;;;;;5076066;28;20426;-77
2022/04/03 08:06:27;;;;;;;7.23;3.43;;;3.80;99.90;;;;;;5071939;28;20028;-79
2022/04/03 08:08:53;;;;;;;5.97;3.87;;;3.80;99.90;;;;;;5057763;28;20032;-80
2022/04/03 08:11:19;;;;;;;5.37;3.20;;;3.80;99.90;;;;;;5068497;28;20043;-79
2022/04/03 08:13:45;;;;;;;6.63;3.27;;;3.90;99.90;;;;;;5056452;28;20043;-79
2022/04/03 08:16:11;;;;;;;5.80;3.40;;;4.00;99.90;;;;;;5063082;28;20028;-79
2022/04/03 08:18:37;;;;;;;5.63;3.07;;;4.10;99.90;;;;;;5082117;28;20108;-79
2022/04/03 08:21:03;;;;;;;4.07;2.33;;;4.20;99.90;;;;;;5073670;28;20140;-79
2022/04/03 08:23:28;;;;;;;3.17;2.10;;;4.30;99.40;;;;;;5068291;28;20032;-80
2022/04/03 08:25:54;;;;;;;4.83;2.00;;;4.60;99.00;;;;;;5077803;28;20031;-80
2022/04/03 08:28:22;;;;;;;3.30;1.90;;;4.80;99.50;;;;;;5071176;28;20055;-79
2022/04/03 08:30:48;;;;;;;3.67;2.07;;;4.80;98.70;;;;;;5079976;28;20021;-79
2022/04/03 08:33:13;;;;;;;2.27;2.00;;;5.00;98.40;;;;;;5060219;28;20036;-80
2022/04/03 08:35:40;;;;;;;2.93;2.20;;;5.10;97.60;;;;;;5089436;28;20373;-79
2022/04/03 08:38:07;;;;;;;3.30;1.70;;;5.10;97.20;;;;;;5080238;28;20422;-79
2022/04/03 08:40:34;;;;;;;3.00;1.90;;;5.10;95.80;;;;;;5063862;28;20496;-79
2022/04/03 08:43:00;;;;;;;3.03;1.93;;;5.10;95.40;;;;;;5087161;28;20024;-77
2022/04/03 08:45:26;;;;;;;4.07;1.87;;;5.20;95.30;;;;;;5058005;28;20020;-77
2022/04/03 08:47:54;;;;;;;3.97;1.90;;;5.10;95.80;;;;;;5055319;28;20392;-77
2022/04/03 08:50:28;;;;;;;2.40;1.80;;;5.10;95.00;;;;;;5072921;28;20025;-78
2022/04/03 08:52:56;;;;;;;3.60;2.10;;;5.10;96.00;;;;;;5054386;28;20036;-77
2022/04/03 08:55:22;;;;;;;3.67;2.43;;;5.10;96.00;;;;;;5053331;28;20028;-78
2022/04/03 08:57:48;;;;;;;5.37;2.40;;;5.00;96.10;;;;;;5056739;28;20035;-77
2022/04/03 09:00:14;;;;;;;3.33;2.20;;;4.90;96.40;;;;;;5055826;28;20405;-78
2022/04/03 09:02:42;;;;;;;4.83;2.30;;;4.90;96.30;;;;;;5054267;28;20457;-78
2022/04/03 09:05:11;;;;;;;5.67;2.80;;;4.90;97.30;;;;;;5088457;28;20547;-78
2022/04/03 09:07:37;;;;;;;3.27;2.13;;;4.90;95.30;;;;;;5057601;28;20028;-78
2022/04/03 09:10:08;;;;;;;2.97;2.03;;;4.90;93.20;;;;;;5085168;28;20028;-78
2022/04/03 09:12:46;;;;;;;4.28;2.10;;;4.90;93.10;;;;;;5083760;28;20066;-77
2022/04/03 09:15:14;;;;;;;4.43;2.60;;;4.90;92.60;;;;;;5056065;28;20041;-78
2022/04/03 09:17:49;;;;;;;3.97;2.20;;;5.00;93.20;;;;;;5088371;28;20012;-77
2022/04/03 09:20:20;;;;;;;3.70;2.13;;;5.10;92.80;;;;;;5062060;28;20048;-77
2022/04/03 09:22:50;;;;;;;3.03;1.90;;;5.20;92.70;;;;;;5061170;28;20034;-77
2022/04/03 09:25:19;;;;;;;5.83;2.10;;;5.20;92.50;;;;;;5088009;28;20469;-78
2022/04/03 09:27:50;;;;;;;5.13;2.53;;;5.10;91.70;;;;;;5071664;28;20529;-77
2022/04/03 09:30:17;;;;;;;4.60;2.70;;;5.10;91.40;;;;;;5080248;28;20030;-78
2022/04/03 09:32:56;;;;;;;5.50;3.00;;;5.00;91.60;;;;;;5079455;28;20032;-77
2022/04/03 09:35:25;;;;;;;6.47;2.40;;;4.90;92.20;;;;;;5073140;28;20033;-77
2022/04/03 09:38:05;;;;;;;5.07;2.70;;;4.70;93.50;;;;;;5067367;28;20040;-77
2022/04/03 09:40:32;;;;;;;3.80;2.33;;;4.60;94.70;;;;;;5070155;28;20029;-77
2022/04/03 09:43:15;;;;;;;3.93;2.50;;;4.60;96.00;;;;;;5069839;28;20048;-78
2022/04/03 09:45:51;;;;;;;6.17;2.73;;;4.60;96.20;;;;;;5061376;28;20024;-78
2022/04/03 09:48:21;;;;;;;5.00;3.00;;;4.60;96.20;;;;;;5054168;28;20024;-78
2022/04/03 09:51:04;;;;;;;5.00;2.83;;;4.60;94.90;;;;;;5071461;28;20063;-77
2022/04/03 09:53:46;;;;;;;5.87;3.13;;;4.70;95.60;;;;;;5045421;28;20047;-77
2022/04/03 09:56:34;;;;;;;5.85;3.42;;;4.80;95.30;;;;;;5061241;28;20029;-78
2022/04/03 09:59:01;;;;;;;6.80;3.80;;;4.80;96.30;;;;;;5066207;28;20033;-78
2022/04/03 10:01:35;;;;;;;6.60;3.17;;;4.90;95.40;;;;;;5068010;28;20031;-77
2022/04/03 10:04:05;;;;;;;7.10;3.10;;;5.00;95.20;;;;;;5062920;28;20028;-77
2022/04/03 10:06:34;;;;;;;6.67;3.00;;;5.00;93.90;;;;;;5059087;28;20048;-77
2022/04/03 10:09:01;;;;;;;5.63;3.10;;;5.10;95.90;;;;;;5069033;28;20141;-78
2022/04/03 10:11:27;;;;;;;8.53;3.37;;;5.10;94.10;;;;;;5058031;28;20023;-77
2022/04/03 10:13:53;;;;;;;7.63;3.13;;;5.00;93.00;;;;;;5063530;28;20039;-78
2022/04/03 10:16:21;;;;;;;8.50;3.40;;;5.00;92.60;;;;;;5064997;28;20034;-78
2022/04/03 10:18:48;;;;;;;9.90;3.57;;;5.00;92.30;;;;;;5056398;28;20024;-77
2022/04/03 10:21:45;;;;;;;7.57;3.47;;;4.90;92.00;;;;;;5055912;28;20051;-78
2022/04/03 10:24:18;;;;;;;4.90;3.30;;;5.00;92.70;;;;;;5079145;28;20028;-78
2022/04/03 10:26:51;;;;;;;7.43;3.17;;;5.10;91.90;;;;;;5068898;28;20376;-78
2022/04/03 10:29:17;;;;;;;8.93;3.53;;;5.10;91.80;;;;;;5040420;28;20031;-77
2022/04/03 10:31:55;;;;;;;4.70;3.03;;;5.10;91.60;;;;;;5065245;28;20020;-78
2022/04/03 10:34:21;;;;;;;9.43;4.43;;;5.10;91.80;;;;;;5083560;28;20122;-78
2022/04/03 10:36:51;;;;;;;11.80;5.67;;;5.10;91.60;;;;;;5090185;28;20020;-78
2022/04/03 10:39:28;;;;;;;8.53;4.50;;;5.10;92.40;;;;;;5040153;28;20066;-78
2022/04/03 10:42:20;;;;;;;6.53;3.70;;;5.20;92.40;;;;;;5064878;28;20024;-78
2022/04/03 10:45:12;;;;;;;7.10;3.80;;;5.10;90.30;;;;;;5056411;28;20102;-78
2022/04/03 10:47:41;;;;;;;6.72;3.65;;;5.10;92.40;;;;;;5045777;28;20115;-78
2022/04/03 10:50:08;;;;;;;5.60;3.23;;;5.10;93.50;;;;;;5060421;28;20032;-78
2022/04/03 10:52:37;;;;;;;6.13;3.43;;;5.00;93.80;;;;;;5066941;28;20063;-78
2022/04/03 10:55:27;;;;;;;4.83;3.10;;;5.00;94.00;;;;;;5073236;28;20020;-78
2022/04/03 10:58:02;;;;;;;5.23;2.97;;;5.00;94.70;;;;;;5063477;28;20081;-78
2022/04/03 11:00:27;;;;;;;6.80;3.67;;;5.00;94.80;;;;;;5084402;28;20024;-78
2022/04/03 11:02:53;;;;;;;7.10;3.67;;;5.00;95.60;;;;;;5055429;28;20480;-78
2022/04/03 11:05:21;;;;;;;7.13;3.60;;;5.00;95.50;;;;;;5067533;28;20020;-78
2022/04/03 11:08:00;;;;;;;5.70;3.13;;;5.00;95.80;;;;;;5078431;28;20024;-78
2022/04/03 11:10:54;;;;;;;5.50;2.70;;;5.10;96.90;;;;;;5058544;28;20079;-78
2022/04/03 11:13:30;;;;;;;5.90;2.90;;;5.10;97.00;;;;;;5058623;28;20028;-78
2022/04/03 11:16:09;;;;;;;6.83;3.30;;;5.10;97.00;;;;;;5080750;28;20020;-79
2022/04/03 11:18:49;;;;;;;5.03;2.87;;;5.10;97.00;;;;;;5085088;28;20127;-79
2022/04/03 11:21:27;;;;;;;5.93;3.03;;;5.10;96.60;;;;;;5039498;28;20471;-79
2022/04/03 11:24:10;;;;;;;4.40;2.90;;;5.20;97.30;;;;;;5081424;28;20106;-79
2022/04/03 11:26:36;;;;;;;4.50;3.10;;;5.30;97.60;;;;;;5085054;28;20069;-78
2022/04/03 11:29:03;;;;;;;5.13;2.60;;;5.30;97.40;;;;;;5054873;28;20051;-78
2022/04/03 11:31:30;;;;;;;5.27;3.10;;;5.40;97.20;;;;;;5066308;28;20021;-78
2022/04/03 11:33:57;;;;;;;5.27;2.57;;;5.50;96.50;;;;;;5061214;28;20528;-78
2022/04/03 11:36:28;;;;;;;5.13;2.70;;;5.70;95.40;;;;;;5089325;28;20023;-78
2022/04/03 11:38:55;;;;;;;7.32;3.10;;;5.80;93.20;;;;;;5073589;28;20111;-78
2022/04/03 11:41:27;;;;;;;4.07;2.60;;;5.80;93.10;;;;;;5064037;28;20080;-78
2022/04/03 11:44:01;;;;;;;4.93;3.10;;;5.80;92.00;;;;;;5047694;28;20029;-79
2022/04/03 11:46:34;;;;;;;5.30;3.23;;;5.80;91.20;;;;;;5066419;28;20020;-79
2022/04/03 11:49:00;;;;;;;4.47;2.83;;;5.80;91.70;;;;;;5054800;28;20102;-79
2022/04/03 11:51:26;;;;;;;6.90;3.13;;;5.70;90.90;;;;;;5066369;28;20456;-78
2022/04/03 11:53:59;;;;;;;4.53;2.80;;;5.70;89.30;;;;;;5078859;28;20146;-79
2022/04/03 11:56:26;;;;;;;4.77;2.90;;;5.50;88.30;;;;;;5058375;28;20532;-79
2022/04/03 11:58:57;;;;;;;4.00;2.77;;;5.50;88.30;;;;;;5086402;28;20055;-79
2022/04/03 12:01:41;;;;;;;6.07;3.37;;;5.40;87.90;;;;;;5059621;28;20031;-79
2022/04/03 12:04:14;;;;;;;6.13;3.13;;;5.40;87.80;;;;;;5082006;28;20040;-79
2022/04/03 12:06:46;;;;;;;5.40;3.30;;;5.30;87.40;;;;;;5089160;28;20028;-79
2022/04/03 12:09:13;;;;;;;;;;;5.40;88.60;;;;;;5058526;28;20464;-79
2022/04/03 12:11:41;;;;;;;4.33;3.07;;;5.30;86.80;;;;;;5067746;28;20049;-79
2022/04/03 12:14:08;;;;;;;4.40;2.77;;;5.40;88.80;;;;;;5081884;28;20456;-79
2022/04/03 12:16:38;;;;;;;6.70;3.27;;;5.50;87.20;;;;;;5087727;28;20067;-79
2022/04/03 12:19:06;;;;;;;4.80;3.37;;;5.50;87.60;;;;;;5076033;28;20025;-79
2022/04/03 12:21:45;;;;;;;4.53;3.00;;;5.60;87.60;;;;;;5069124;28;20055;-79
2022/04/03 12:24:19;;;;;;;3.80;2.77;;;5.70;87.10;;;;;;5083796;28;20381;-79
2022/04/03 12:26:49;;;;;;;4.90;3.07;;;5.80;85.10;;;;;;5059049;28;20381;-79
2022/04/03 12:29:16;;;;;;;5.43;3.10;;;5.90;85.00;;;;;;5076429;28;20024;-78
2022/04/03 12:31:41;;;;;;;4.23;2.70;;;6.10;84.90;;;;;;5067414;28;20045;-79
2022/04/03 12:34:08;;;;;;;4.97;2.93;;;6.20;83.50;;;;;;5083264;28;20075;-79
2022/04/03 12:36:39;;;;;;;4.47;2.70;;;6.30;80.00;;;;;;5074560;28;20043;-79
2022/04/03 12:39:05;;;;;;;3.53;2.57;;;6.40;76.70;;;;;;5057406;28;20035;-79
2022/04/03 12:41:30;;;;;;;6.23;2.97;;;6.40;75.60;;;;;;5068862;28;20412;-79
2022/04/03 12:43:56;;;;;;;4.20;2.73;;;6.50;72.70;;;;;;5083140;28;20055;-79
2022/04/03 12:46:22;;;;;;;4.13;2.20;;;6.60;71.30;;;;;;5061851;28;20028;-79
2022/04/03 12:48:51;;;;;;;4.10;2.40;;;6.70;69.40;;;;;;5071952;28;20031;-79
2022/04/03 12:51:17;;;;;;;8.47;5.00;;;6.60;68.70;;;;;;5058565;28;20016;-79
2022/04/03 12:53:51;;;;;;;5.03;2.73;;;6.80;68.70;;;;;;5066887;28;20032;-79
2022/04/03 12:56:16;;;;;;;4.07;2.57;;;6.90;67.60;;;;;;5085006;28;20081;-79
2022/04/03 12:58:48;;;;;;;2.67;2.20;;;6.90;66.40;;;;;;5059048;28;20033;-79